KAKH/AKH METAR and TAF weather

Enter ICAO airport designator
Station Type Date Time Source
KAKH METAR 2019/05/19 19:54 UTC NOAA

KAKH 191954Z AUTO 18007G16KT 10SM CLR 31/16 A3002 RMK AO2 SLP157 T03110156


Station Type Date Time Source
KAKH Decoded METAR 2019/05/19 19:54 UTC NOAA

GASTONIA MUNICIPAL AIRPORT, NC, United States (KAKH) 35-12N 81-09W 243M
May 19, 2019 - 03:54 PM EDT / 2019.05.19 1954 UTC
Wind: from the S (180 degrees) at 8 MPH (7 KT) gusting to 18 MPH (16 KT):0
Visibility: 10 mile(s):0
Sky conditions: clear
Temperature: 88.0 F (31.1 C)
Dew Point: 60.1 F (15.6 C)
Relative Humidity: 39%
Pressure (altimeter): 30.02 in. Hg (1016 hPa)
ob: KAKH 191954Z AUTO 18007G16KT 10SM CLR 31/16 A3002 RMK AO2 SLP157 T03110156
cycle: 20

Station Type Date Time Source
KAKH TAF UTC NOAA

Error!

Example: see airport list